createdAt,value
2019-03-06T00:00:02.536Z,0.00
2019-03-06T00:01:02.590Z,0.00
2019-03-06T00:02:55.575Z,0.00
2019-03-06T00:03:55.623Z,0.00
2019-03-06T00:05:48.618Z,0.00
2019-03-06T00:06:48.658Z,0.00
2019-03-06T00:08:41.645Z,0.00
2019-03-06T00:09:41.712Z,0.00
2019-03-06T00:11:34.683Z,0.00
2019-03-06T00:12:34.731Z,0.00
2019-03-06T00:14:27.708Z,0.00
2019-03-06T00:15:27.761Z,0.00
2019-03-06T00:17:20.747Z,0.00
2019-03-06T00:18:20.794Z,0.00
2019-03-06T00:20:13.766Z,0.00
2019-03-06T00:21:13.826Z,0.00
2019-03-06T00:23:06.806Z,0.00
2019-03-06T00:24:06.855Z,0.00
2019-03-06T00:25:59.828Z,0.00
2019-03-06T00:26:59.884Z,0.00
2019-03-06T00:28:52.870Z,0.00
2019-03-06T00:29:52.915Z,0.00
2019-03-06T00:31:45.895Z,0.00
2019-03-06T00:32:45.943Z,0.00
2019-03-06T00:34:38.916Z,0.00
2019-03-06T00:35:38.973Z,0.00
2019-03-06T00:37:31.956Z,0.00
2019-03-06T00:38:32.008Z,0.00
2019-03-06T00:40:24.981Z,0.00
2019-03-06T00:41:25.033Z,0.00
2019-03-06T00:43:18.017Z,0.00
2019-03-06T00:44:18.064Z,0.00
2019-03-06T00:46:11.037Z,0.00
2019-03-06T00:47:11.091Z,0.00
2019-03-06T00:49:04.073Z,0.00
2019-03-06T00:50:04.121Z,0.00
2019-03-06T00:51:57.106Z,0.00
2019-03-06T00:52:57.151Z,0.00
2019-03-06T00:54:50.151Z,0.00
2019-03-06T00:55:50.184Z,0.00
2019-03-06T00:57:43.194Z,0.00
2019-03-06T00:58:43.245Z,0.00
2019-03-06T01:00:36.240Z,0.00
2019-03-06T01:01:36.299Z,0.00
2019-03-06T01:03:29.286Z,0.00
2019-03-06T01:04:29.337Z,0.00
2019-03-06T01:06:22.312Z,0.00
2019-03-06T01:07:22.366Z,0.00
2019-03-06T01:09:15.364Z,0.00
2019-03-06T01:10:15.398Z,0.00
2019-03-06T01:12:08.384Z,0.00
2019-03-06T01:13:08.424Z,0.00
2019-03-06T01:15:01.409Z,0.00
2019-03-06T01:16:01.464Z,0.00
2019-03-06T01:17:54.451Z,0.00
2019-03-06T01:18:54.491Z,0.00
2019-03-06T01:20:47.468Z,0.00
2019-03-06T01:21:47.524Z,0.00
2019-03-06T01:23:40.506Z,0.00
2019-03-06T01:24:40.555Z,0.00
2019-03-06T01:26:33.530Z,0.00
2019-03-06T01:27:33.584Z,0.00
2019-03-06T01:29:26.572Z,0.00
2019-03-06T01:30:26.623Z,0.00
2019-03-06T01:32:19.615Z,0.00
2019-03-06T01:33:19.667Z,0.00
2019-03-06T01:35:12.642Z,0.00
2019-03-06T01:36:12.696Z,0.00
2019-03-06T01:38:05.675Z,0.00
2019-03-06T01:39:05.725Z,0.00
2019-03-06T01:40:58.698Z,0.00
2019-03-06T01:41:58.757Z,0.00
2019-03-06T01:43:51.738Z,0.00
2019-03-06T01:44:51.787Z,0.00
2019-03-06T01:46:44.759Z,0.00
2019-03-06T01:47:44.817Z,0.00
2019-03-06T01:49:37.799Z,0.00
2019-03-06T01:50:37.844Z,0.00
2019-03-06T01:52:30.835Z,0.00
2019-03-06T01:53:30.883Z,0.00
2019-03-06T01:55:23.859Z,0.00
2019-03-06T01:56:23.919Z,0.00
2019-03-06T01:58:16.914Z,0.00
2019-03-06T01:59:16.954Z,0.00
2019-03-06T02:01:09.924Z,0.00
2019-03-06T02:02:10.005Z,0.00
2019-03-06T02:04:02.965Z,0.00
2019-03-06T02:05:03.014Z,0.00
2019-03-06T02:06:56.000Z,0.00
2019-03-06T02:07:56.044Z,0.00
2019-03-06T02:09:49.026Z,0.00
2019-03-06T02:10:49.075Z,0.00
2019-03-06T02:12:42.057Z,0.00
2019-03-06T02:13:42.104Z,0.00
2019-03-06T02:15:35.079Z,0.00
2019-03-06T02:16:35.137Z,0.00
2019-03-06T02:18:28.119Z,0.00
2019-03-06T02:19:28.169Z,0.00
2019-03-06T02:21:21.152Z,0.00
2019-03-06T02:22:21.210Z,0.00
2019-03-06T02:24:14.192Z,0.00
2019-03-06T02:25:14.241Z,0.00
2019-03-06T02:27:07.224Z,0.00
2019-03-06T02:28:07.284Z,0.00
2019-03-06T02:30:00.497Z,0.00
2019-03-06T02:31:00.315Z,0.00
2019-03-06T02:32:53.298Z,0.00
2019-03-06T02:33:53.347Z,0.00
2019-03-06T02:35:46.328Z,0.00
2019-03-06T02:36:46.376Z,0.00
2019-03-06T02:38:39.365Z,0.00
2019-03-06T02:39:39.409Z,0.00
2019-03-06T02:41:32.388Z,0.00
2019-03-06T02:42:32.442Z,0.00
2019-03-06T02:44:25.436Z,0.00
2019-03-06T02:45:25.472Z,0.00
2019-03-06T02:47:18.445Z,0.00
2019-03-06T02:48:18.503Z,0.00
2019-03-06T02:50:11.486Z,0.00
2019-03-06T02:51:11.539Z,0.00
2019-03-06T02:53:04.517Z,0.00
2019-03-06T02:54:04.567Z,0.00
2019-03-06T02:55:57.581Z,0.00
2019-03-06T02:56:57.608Z,0.00
2019-03-06T02:58:50.576Z,0.00
2019-03-06T02:59:50.626Z,0.00
2019-03-06T03:01:44.112Z,0.00
2019-03-06T03:02:44.165Z,0.00
2019-03-06T03:04:37.152Z,0.00
2019-03-06T03:05:37.199Z,0.00
2019-03-06T03:07:30.204Z,0.00
2019-03-06T03:08:30.230Z,0.00
2019-03-06T03:10:23.216Z,0.00
2019-03-06T03:11:23.282Z,0.00
2019-03-06T03:13:16.250Z,0.00
2019-03-06T03:14:16.310Z,0.00
2019-03-06T03:16:09.276Z,0.00
2019-03-06T03:17:09.327Z,0.00
2019-03-06T03:19:02.350Z,0.00
2019-03-06T03:20:02.358Z,0.00
2019-03-06T03:21:55.330Z,0.00
2019-03-06T03:22:55.387Z,0.00
2019-03-06T03:24:48.373Z,0.00
2019-03-06T03:25:48.425Z,0.00
2019-03-06T03:27:41.399Z,0.00
2019-03-06T03:28:41.455Z,0.00
2019-03-06T03:30:34.438Z,0.00
2019-03-06T03:31:34.493Z,0.00
2019-03-06T03:33:27.475Z,0.00
2019-03-06T03:34:27.535Z,0.00
2019-03-06T03:36:20.500Z,0.00
2019-03-06T03:37:20.609Z,0.00
2019-03-06T03:39:13.551Z,0.00
2019-03-06T03:40:13.581Z,0.00
2019-03-06T03:42:06.552Z,0.00
2019-03-06T03:43:06.609Z,0.00
2019-03-06T03:44:59.593Z,0.00
2019-03-06T03:45:59.640Z,0.00
2019-03-06T03:47:52.617Z,0.00
2019-03-06T03:48:52.673Z,0.00
2019-03-06T03:50:45.662Z,0.00
2019-03-06T03:51:45.704Z,0.00
2019-03-06T03:53:38.682Z,0.00
2019-03-06T03:54:38.731Z,0.00
2019-03-06T03:56:31.738Z,0.00
2019-03-06T03:57:31.778Z,0.00
2019-03-06T03:59:24.766Z,0.00
2019-03-06T04:00:24.817Z,0.00
2019-03-06T04:02:18.323Z,0.00
2019-03-06T04:03:18.374Z,0.00
2019-03-06T04:05:11.361Z,0.00
2019-03-06T04:06:11.409Z,0.00
2019-03-06T04:08:04.381Z,0.00
2019-03-06T04:09:04.440Z,0.00
2019-03-06T04:10:57.420Z,0.00
2019-03-06T04:11:57.468Z,0.00
2019-03-06T04:13:50.471Z,0.00
2019-03-06T04:14:50.511Z,0.00
2019-03-06T04:16:43.488Z,0.00
2019-03-06T04:17:43.541Z,0.00
2019-03-06T04:19:36.537Z,0.00
2019-03-06T04:20:36.575Z,0.00
2019-03-06T04:22:29.561Z,0.00
2019-03-06T04:23:29.621Z,0.00
2019-03-06T04:25:22.629Z,0.00
2019-03-06T04:26:22.651Z,0.00
2019-03-06T04:28:15.641Z,0.00
2019-03-06T04:29:15.789Z,0.00
2019-03-06T04:31:08.680Z,0.00
2019-03-06T04:32:08.738Z,0.00
2019-03-06T04:34:01.707Z,0.00
2019-03-06T04:35:01.751Z,0.00
2019-03-06T04:36:54.728Z,0.00
2019-03-06T04:37:54.784Z,0.00
2019-03-06T04:39:47.766Z,0.00
2019-03-06T04:40:47.814Z,0.00
2019-03-06T04:42:40.789Z,0.00
2019-03-06T04:43:40.842Z,0.00
2019-03-06T04:45:33.821Z,0.00
2019-03-06T04:46:33.875Z,0.00
2019-03-06T04:48:26.851Z,0.00
2019-03-06T04:49:26.906Z,0.00
2019-03-06T04:51:19.892Z,0.00
2019-03-06T04:52:19.943Z,0.00
2019-03-06T04:54:12.935Z,0.00
2019-03-06T04:55:12.985Z,0.00
2019-03-06T04:57:05.966Z,0.00
2019-03-06T04:58:06.024Z,0.00
2019-03-06T04:59:59.006Z,0.00
2019-03-06T05:00:59.053Z,0.00
2019-03-06T05:02:52.061Z,0.00
2019-03-06T05:03:52.096Z,0.00
2019-03-06T05:05:45.078Z,0.00
2019-03-06T05:06:45.124Z,0.00
2019-03-06T05:08:38.106Z,0.00
2019-03-06T05:09:38.164Z,0.00
2019-03-06T05:11:31.145Z,0.00
2019-03-06T05:12:31.198Z,0.00
2019-03-06T05:14:24.179Z,0.00
2019-03-06T05:15:24.225Z,0.00
2019-03-06T05:17:17.202Z,0.00
2019-03-06T05:18:17.259Z,0.00
2019-03-06T05:20:10.246Z,0.00
2019-03-06T05:21:10.291Z,0.00
2019-03-06T05:23:03.267Z,0.00
2019-03-06T05:24:03.324Z,0.00
2019-03-06T05:25:56.315Z,0.00
2019-03-06T05:26:56.365Z,0.00
2019-03-06T05:28:49.357Z,0.00
2019-03-06T05:29:49.414Z,0.00
2019-03-06T05:31:42.397Z,0.00
2019-03-06T05:32:42.446Z,0.00
2019-03-06T05:34:35.445Z,0.00
2019-03-06T05:35:35.488Z,0.00
2019-03-06T05:37:28.469Z,0.00
2019-03-06T05:38:28.525Z,0.00
2019-03-06T05:40:21.511Z,0.00
2019-03-06T05:41:21.556Z,0.00
2019-03-06T05:43:14.530Z,0.00
2019-03-06T05:44:14.588Z,4.00
2019-03-06T05:46:07.570Z,0.00
2019-03-06T05:47:07.622Z,4.00
2019-03-06T05:49:00.608Z,8.00
2019-03-06T05:50:00.656Z,4.00
2019-03-06T05:51:53.640Z,4.00
2019-03-06T05:52:53.694Z,8.00
2019-03-06T05:54:46.670Z,12.00
2019-03-06T05:55:46.722Z,16.00
2019-03-06T05:57:39.708Z,24.00
2019-03-06T05:58:39.765Z,28.00
2019-03-06T06:00:32.748Z,36.00
2019-03-06T06:01:32.796Z,40.00
2019-03-06T06:03:25.772Z,52.00
2019-03-06T06:04:25.829Z,60.00
2019-03-06T06:06:18.822Z,72.00
2019-03-06T06:07:18.857Z,84.00
2019-03-06T06:09:11.840Z,96.00
2019-03-06T06:10:11.896Z,108.00
2019-03-06T06:12:04.882Z,132.00
2019-03-06T06:13:04.940Z,148.00
2019-03-06T06:14:57.921Z,180.00
2019-03-06T06:15:57.968Z,200.00
2019-03-06T06:17:50.944Z,248.00
2019-03-06T06:18:51.001Z,284.00
2019-03-06T06:20:43.981Z,344.00
2019-03-06T06:21:44.029Z,376.00
2019-03-06T06:23:37.007Z,440.00
2019-03-06T06:24:37.060Z,472.00
2019-03-06T06:26:30.049Z,532.00
2019-03-06T06:27:30.091Z,568.00
2019-03-06T06:29:23.087Z,636.00
2019-03-06T06:30:23.143Z,672.00
2019-03-06T06:32:16.125Z,716.00
2019-03-06T06:33:16.176Z,720.00
2019-03-06T06:35:09.160Z,724.00
2019-03-06T06:36:09.211Z,728.00
2019-03-06T06:38:02.186Z,748.00
2019-03-06T06:39:02.240Z,760.00
2019-03-06T06:40:55.229Z,764.00
2019-03-06T06:41:55.277Z,760.00
2019-03-06T06:43:48.258Z,788.00
2019-03-06T06:44:48.310Z,820.00
2019-03-06T06:46:41.294Z,876.00
2019-03-06T06:47:41.344Z,916.00
2019-03-06T06:49:34.323Z,1044.00
2019-03-06T06:50:34.382Z,1124.00
2019-03-06T06:52:27.368Z,1252.00
2019-03-06T06:53:27.420Z,1324.00
2019-03-06T06:55:20.401Z,1472.00
2019-03-06T06:56:20.454Z,1548.00
2019-03-06T06:58:13.428Z,1684.00
2019-03-06T06:59:13.483Z,1740.00
2019-03-06T07:01:06.481Z,1832.00
2019-03-06T07:02:06.533Z,1872.00
2019-03-06T07:03:59.508Z,1920.00
2019-03-06T07:04:59.563Z,1940.00
2019-03-06T07:06:52.554Z,2012.00
2019-03-06T07:07:52.600Z,2088.00
2019-03-06T07:09:45.596Z,2320.00
2019-03-06T07:10:45.633Z,2508.00
2019-03-06T07:12:38.613Z,2868.00
2019-03-06T07:13:38.655Z,3008.00
2019-03-06T07:15:31.649Z,3128.00
2019-03-06T07:16:31.697Z,3164.00
2019-03-06T07:18:24.678Z,3276.00
2019-03-06T07:19:24.736Z,3352.00
2019-03-06T07:21:17.726Z,3484.00
2019-03-06T07:22:17.776Z,3564.00
2019-03-06T07:24:10.753Z,3672.00
2019-03-06T07:25:10.812Z,3704.00
2019-03-06T07:27:03.794Z,3732.00
2019-03-06T07:28:03.842Z,3720.00
2019-03-06T07:29:56.821Z,3680.00
2019-03-06T07:30:56.880Z,3632.00
2019-03-06T07:32:49.904Z,3520.00
2019-03-06T07:33:49.921Z,3488.00
2019-03-06T07:35:42.902Z,3504.00
2019-03-06T07:36:42.954Z,3544.00
2019-03-06T07:38:35.937Z,3536.00
2019-03-06T07:39:35.987Z,3476.00
2019-03-06T07:41:28.976Z,3276.00
2019-03-06T07:42:29.024Z,3180.00
2019-03-06T07:44:29.869Z,3060.00
2019-03-06T07:45:22.086Z,3056.00
2019-03-06T07:47:15.054Z,3204.00
2019-03-06T07:48:15.098Z,3272.00
2019-03-06T07:50:08.077Z,3404.00
2019-03-06T07:51:08.134Z,3460.00
2019-03-06T07:53:01.111Z,3552.00
2019-03-06T07:54:01.164Z,3544.00
2019-03-06T07:55:54.143Z,3596.00
2019-03-06T07:56:54.192Z,3636.00
2019-03-06T07:58:47.175Z,3536.00
2019-03-06T07:59:47.233Z,3536.00
2019-03-06T08:01:40.220Z,3516.00
2019-03-06T08:02:40.270Z,3436.00
2019-03-06T08:04:33.248Z,3256.00
2019-03-06T08:05:33.303Z,3220.00
2019-03-06T08:07:26.288Z,3224.00
2019-03-06T08:08:26.337Z,3328.00
2019-03-06T08:10:19.313Z,3632.00
2019-03-06T08:11:19.374Z,3864.00
2019-03-06T08:13:12.358Z,4260.00
2019-03-06T08:14:21.778Z,4508.00
2019-03-06T08:16:05.392Z,4964.00
2019-03-06T08:17:05.440Z,5264.00
2019-03-06T08:18:58.445Z,5780.00
2019-03-06T08:19:58.506Z,5928.00
2019-03-06T08:21:51.495Z,6184.00
2019-03-06T08:22:51.545Z,6452.00
2019-03-06T08:24:44.525Z,6792.00
2019-03-06T08:25:44.582Z,6644.00
2019-03-06T08:27:37.566Z,5984.00
2019-03-06T08:28:37.613Z,5764.00
2019-03-06T08:30:30.608Z,5704.00
2019-03-06T08:31:30.651Z,5680.00
2019-03-06T08:33:23.634Z,5700.00
2019-03-06T08:34:23.684Z,5744.00
2019-03-06T08:36:16.674Z,5600.00
2019-03-06T08:37:17.575Z,5624.00
2019-03-06T08:39:09.721Z,5748.00
2019-03-06T08:40:09.764Z,5968.00
2019-03-06T08:42:02.752Z,5980.00
2019-03-06T08:43:02.801Z,5756.00
2019-03-06T08:44:55.785Z,5560.00
2019-03-06T08:45:55.842Z,5788.00
2019-03-06T08:47:48.826Z,6424.00
2019-03-06T08:48:48.887Z,6372.00
2019-03-06T08:50:41.866Z,6092.00
2019-03-06T08:51:41.924Z,5896.00
2019-03-06T08:53:34.924Z,6156.00
2019-03-06T08:54:34.955Z,6380.00
2019-03-06T08:56:27.941Z,6408.00
2019-03-06T08:57:27.992Z,6340.00
2019-03-06T08:59:20.986Z,6148.00
2019-03-06T09:00:21.027Z,6228.00
2019-03-06T09:02:15.957Z,6308.00
2019-03-06T09:03:15.567Z,6288.00
2019-03-06T09:05:08.545Z,6104.00
2019-03-06T09:06:08.603Z,5936.00
2019-03-06T09:08:01.588Z,5588.00
2019-03-06T09:09:02.299Z,5584.00
2019-03-06T09:11:02.432Z,5564.00
2019-03-06T09:11:54.673Z,5516.00
2019-03-06T09:13:47.663Z,5704.00
2019-03-06T09:14:47.710Z,6036.00
2019-03-06T09:16:40.706Z,7016.00
2019-03-06T09:17:40.747Z,7484.00
2019-03-06T09:19:33.747Z,7856.00
2019-03-06T09:20:37.930Z,8020.00
2019-03-06T09:22:26.791Z,8136.00
2019-03-06T09:23:26.839Z,8044.00
2019-03-06T09:25:19.819Z,7840.00
2019-03-06T09:26:19.877Z,7792.00
2019-03-06T09:28:12.887Z,8168.00
2019-03-06T09:29:12.916Z,8432.00
2019-03-06T09:31:05.902Z,8868.00
2019-03-06T09:32:05.977Z,9136.00
2019-03-06T09:33:58.939Z,9632.00
2019-03-06T09:34:58.989Z,9564.00
2019-03-06T09:36:51.976Z,9112.00
2019-03-06T09:37:52.026Z,8972.00
2019-03-06T09:39:45.004Z,9036.00
2019-03-06T09:40:45.066Z,9284.00
2019-03-06T09:42:38.047Z,9756.00
2019-03-06T09:43:38.100Z,9916.00
2019-03-06T09:45:31.081Z,10028.00
2019-03-06T09:46:31.136Z,9976.00
2019-03-06T09:48:24.136Z,9812.00
2019-03-06T09:49:24.188Z,9796.00
2019-03-06T09:51:17.168Z,9672.00
2019-03-06T09:52:17.226Z,9492.00
2019-03-06T09:54:10.202Z,9236.00
2019-03-06T09:55:10.261Z,9104.00
2019-03-06T09:57:03.246Z,8824.00
2019-03-06T09:58:03.298Z,9056.00
2019-03-06T09:59:56.279Z,9496.00
2019-03-06T10:00:56.336Z,9620.00
2019-03-06T10:02:49.332Z,9600.00
2019-03-06T10:03:49.384Z,10380.00
2019-03-06T10:05:42.382Z,10408.00
2019-03-06T10:06:42.431Z,10100.00
2019-03-06T10:08:35.416Z,9092.00
2019-03-06T10:09:35.466Z,9648.00
2019-03-06T10:11:28.453Z,10348.00
2019-03-06T10:12:28.510Z,10360.00
2019-03-06T10:14:21.512Z,10564.00
2019-03-06T10:15:21.550Z,10408.00
2019-03-06T10:17:14.567Z,9880.00
2019-03-06T10:18:14.602Z,9416.00
2019-03-06T10:20:07.589Z,8976.00
2019-03-06T10:21:07.651Z,8724.00
2019-03-06T10:23:00.644Z,8852.00
2019-03-06T10:24:00.694Z,8772.00
2019-03-06T10:25:53.679Z,8236.00
2019-03-06T10:26:53.735Z,7840.00
2019-03-06T10:28:46.730Z,8236.00
2019-03-06T10:29:46.784Z,8376.00
2019-03-06T10:31:39.756Z,9276.00
2019-03-06T10:32:39.805Z,10048.00
2019-03-06T10:34:32.821Z,11080.00
2019-03-06T10:35:32.877Z,10840.00
2019-03-06T10:37:25.870Z,10412.00
2019-03-06T10:38:25.918Z,9960.00
2019-03-06T10:40:18.902Z,8488.00
2019-03-06T10:41:18.958Z,7780.00
2019-03-06T10:43:11.967Z,8892.00
2019-03-06T10:44:12.011Z,9432.00
2019-03-06T10:46:04.994Z,8604.00
2019-03-06T10:47:05.053Z,8220.00
2019-03-06T10:48:58.058Z,9220.00
2019-03-06T10:49:58.109Z,9800.00
2019-03-06T10:51:51.091Z,9340.00
2019-03-06T10:52:51.148Z,9324.00
2019-03-06T10:54:44.905Z,9812.00
2019-03-06T10:55:44.205Z,10016.00
2019-03-06T10:57:37.196Z,10056.00
2019-03-06T10:58:37.243Z,9524.00
2019-03-06T11:00:30.232Z,10476.00
2019-03-06T11:01:30.282Z,10844.00
2019-03-06T11:03:23.271Z,11504.00
2019-03-06T11:04:23.325Z,11464.00
2019-03-06T11:06:16.316Z,11396.00
2019-03-06T11:07:16.373Z,11384.00
2019-03-06T11:09:09.366Z,11528.00
2019-03-06T11:10:09.424Z,11576.00
2019-03-06T11:12:02.405Z,11392.00
2019-03-06T11:13:02.466Z,11260.00
2019-03-06T11:14:55.476Z,10864.00
2019-03-06T11:15:56.109Z,10764.00
2019-03-06T11:17:48.514Z,10560.00
2019-03-06T11:18:48.573Z,10224.00
2019-03-06T11:20:41.563Z,9948.00
2019-03-06T11:21:41.617Z,10188.00
2019-03-06T11:23:34.614Z,9688.00
2019-03-06T11:24:34.690Z,9616.00
2019-03-06T11:26:27.647Z,9712.00
2019-03-06T11:27:27.706Z,9712.00
2019-03-06T11:29:20.699Z,9576.00
2019-03-06T11:30:20.744Z,9316.00
2019-03-06T11:32:13.734Z,8928.00
2019-03-06T11:33:13.795Z,9244.00
2019-03-06T11:35:06.782Z,10040.00
2019-03-06T11:36:06.836Z,10360.00
2019-03-06T11:37:59.819Z,9784.00
2019-03-06T11:38:59.879Z,9416.00
2019-03-06T11:40:52.865Z,8044.00
2019-03-06T11:41:52.921Z,7728.00
2019-03-06T11:43:45.910Z,7896.00
2019-03-06T11:44:45.985Z,7868.00
2019-03-06T11:46:38.949Z,8436.00
2019-03-06T11:47:39.008Z,8476.00
2019-03-06T11:49:32.002Z,8468.00
2019-03-06T11:50:40.415Z,8384.00
2019-03-06T11:52:25.035Z,8540.00
2019-03-06T11:53:25.095Z,8560.00
2019-03-06T11:55:18.082Z,8604.00
2019-03-06T11:56:18.140Z,8680.00
2019-03-06T11:58:11.119Z,8244.00
2019-03-06T11:59:11.180Z,8448.00
2019-03-06T12:01:04.175Z,7756.00
2019-03-06T12:02:04.221Z,7696.00
2019-03-06T12:03:57.216Z,8724.00
2019-03-06T12:04:57.271Z,9284.00
2019-03-06T12:06:50.250Z,9404.00
2019-03-06T12:07:50.308Z,9060.00
2019-03-06T12:09:43.296Z,9224.00
2019-03-06T12:10:43.348Z,9180.00
2019-03-06T12:12:36.332Z,9264.00
2019-03-06T12:13:36.392Z,9644.00
2019-03-06T12:15:29.383Z,10380.00
2019-03-06T12:16:29.436Z,10520.00
2019-03-06T12:18:22.429Z,10816.00
2019-03-06T12:19:22.493Z,11004.00
2019-03-06T12:21:15.487Z,11076.00
2019-03-06T12:22:15.536Z,11104.00
2019-03-06T12:24:08.517Z,10988.00
2019-03-06T12:25:08.574Z,10948.00
2019-03-06T12:27:01.577Z,11224.00
2019-03-06T12:28:01.628Z,11220.00
2019-03-06T12:29:54.618Z,11216.00
2019-03-06T12:30:54.672Z,11188.00
2019-03-06T12:32:47.667Z,10980.00
2019-03-06T12:33:47.725Z,10912.00
2019-03-06T12:35:40.712Z,10200.00
2019-03-06T12:36:40.774Z,9408.00
2019-03-06T12:38:33.776Z,8832.00
2019-03-06T12:39:33.822Z,8584.00
2019-03-06T12:41:26.810Z,8768.00
2019-03-06T12:42:26.867Z,8984.00
2019-03-06T12:44:19.850Z,9476.00
2019-03-06T12:45:19.922Z,9876.00
2019-03-06T12:47:12.910Z,9960.00
2019-03-06T12:48:12.963Z,9620.00
2019-03-06T12:50:06.268Z,8676.00
2019-03-06T12:51:06.022Z,8764.00
2019-03-06T12:52:59.022Z,8832.00
2019-03-06T12:53:59.073Z,8920.00
2019-03-06T12:55:52.055Z,8552.00
2019-03-06T12:56:52.116Z,8596.00
2019-03-06T12:58:45.106Z,8680.00
2019-03-06T12:59:45.161Z,8628.00
2019-03-06T13:01:39.188Z,7464.00
2019-03-06T13:02:38.211Z,6992.00
2019-03-06T13:04:31.203Z,6796.00
2019-03-06T13:05:31.262Z,6808.00
2019-03-06T13:07:24.262Z,6604.00
2019-03-06T13:08:24.310Z,6952.00
2019-03-06T13:10:17.295Z,6804.00
2019-03-06T13:11:17.355Z,6708.00
2019-03-06T13:13:10.352Z,7528.00
2019-03-06T13:14:10.402Z,7720.00
2019-03-06T13:16:03.390Z,8056.00
2019-03-06T13:17:03.445Z,8088.00
2019-03-06T13:18:56.436Z,8276.00
2019-03-06T13:19:56.490Z,8152.00
2019-03-06T13:21:49.509Z,7992.00
2019-03-06T13:22:49.563Z,7444.00
2019-03-06T13:24:42.545Z,6460.00
2019-03-06T13:25:42.603Z,5732.00
2019-03-06T13:27:35.596Z,4920.00
2019-03-06T13:28:35.647Z,4484.00
2019-03-06T13:30:28.638Z,5072.00
2019-03-06T13:31:28.699Z,4976.00
2019-03-06T13:33:21.692Z,4296.00
2019-03-06T13:34:21.741Z,3800.00
2019-03-06T13:36:14.731Z,3328.00
2019-03-06T13:37:14.785Z,3248.00
2019-03-06T13:39:07.774Z,3760.00
2019-03-06T13:40:07.826Z,3448.00
2019-03-06T13:42:00.816Z,2640.00
2019-03-06T13:43:00.868Z,2804.00
2019-03-06T13:44:53.853Z,3088.00
2019-03-06T13:45:53.913Z,3212.00
2019-03-06T13:47:46.908Z,3128.00
2019-03-06T13:48:46.962Z,3400.00
2019-03-06T13:50:39.958Z,4100.00
2019-03-06T13:51:40.007Z,4584.00
2019-03-06T13:53:32.999Z,4504.00
2019-03-06T13:54:33.054Z,4120.00
2019-03-06T13:56:26.035Z,3644.00
2019-03-06T13:57:26.094Z,3568.00
2019-03-06T13:59:19.085Z,4136.00
2019-03-06T14:00:19.136Z,4120.00
2019-03-06T14:02:12.662Z,4736.00
2019-03-06T14:03:12.710Z,5152.00
2019-03-06T14:05:05.695Z,4616.00
2019-03-06T14:06:05.754Z,4744.00
2019-03-06T14:07:58.747Z,4792.00
2019-03-06T14:08:58.795Z,3788.00
2019-03-06T14:10:51.805Z,3176.00
2019-03-06T14:11:51.837Z,3324.00
2019-03-06T14:13:44.832Z,3092.00
2019-03-06T14:14:44.885Z,2792.00
2019-03-06T14:16:37.883Z,2900.00
2019-03-06T14:17:37.940Z,2732.00
2019-03-06T14:19:30.935Z,2704.00
2019-03-06T14:20:30.983Z,2404.00
2019-03-06T14:22:23.994Z,2260.00
2019-03-06T14:23:24.043Z,2272.00
2019-03-06T14:25:17.035Z,2296.00
2019-03-06T14:26:18.555Z,2308.00
2019-03-06T14:28:10.073Z,2600.00
2019-03-06T14:29:10.144Z,2712.00
2019-03-06T14:31:03.117Z,3352.00
2019-03-06T14:32:03.179Z,3860.00
2019-03-06T14:33:56.166Z,4000.00
2019-03-06T14:34:56.218Z,3692.00
2019-03-06T14:36:49.200Z,3512.00
2019-03-06T14:37:49.258Z,3572.00
2019-03-06T14:39:42.268Z,3564.00
2019-03-06T14:40:42.310Z,3528.00
2019-03-06T14:42:35.317Z,3464.00
2019-03-06T14:43:35.354Z,3488.00
2019-03-06T14:45:28.361Z,3532.00
2019-03-06T14:46:28.419Z,3444.00
2019-03-06T14:48:21.405Z,3276.00
2019-03-06T14:49:21.455Z,3196.00
2019-03-06T14:51:14.444Z,3576.00
2019-03-06T14:52:14.505Z,3464.00
2019-03-06T14:54:07.507Z,3344.00
2019-03-06T14:55:07.544Z,3168.00
2019-03-06T14:57:00.528Z,2472.00
2019-03-06T14:58:00.587Z,2144.00
2019-03-06T14:59:53.596Z,1836.00
2019-03-06T15:00:53.645Z,1744.00
2019-03-06T15:02:47.140Z,1720.00
2019-03-06T15:03:47.201Z,1656.00
2019-03-06T15:05:46.822Z,1664.00
2019-03-06T15:06:40.240Z,1672.00
2019-03-06T15:08:33.235Z,1812.00
2019-03-06T15:09:33.287Z,1772.00
2019-03-06T15:11:32.895Z,1440.00
2019-03-06T15:12:26.342Z,1360.00
2019-03-06T15:14:19.324Z,1496.00
2019-03-06T15:15:19.375Z,1596.00
2019-03-06T15:17:12.359Z,1828.00
2019-03-06T15:18:12.420Z,1892.00
2019-03-06T15:20:05.412Z,2064.00
2019-03-06T15:21:05.462Z,2224.00
2019-03-06T15:22:58.445Z,1776.00
2019-03-06T15:23:58.502Z,1796.00
2019-03-06T15:25:51.532Z,1768.00
2019-03-06T15:26:51.545Z,1932.00
2019-03-06T15:28:44.538Z,1788.00
2019-03-06T15:29:44.588Z,1696.00
2019-03-06T15:31:37.584Z,1600.00
2019-03-06T15:32:37.638Z,1516.00
2019-03-06T15:34:30.640Z,1552.00
2019-03-06T15:35:30.692Z,1472.00
2019-03-06T15:37:23.677Z,1560.00
2019-03-06T15:38:23.736Z,1604.00
2019-03-06T15:40:16.721Z,1568.00
2019-03-06T15:41:16.776Z,1484.00
2019-03-06T15:43:09.759Z,1648.00
2019-03-06T15:44:09.819Z,1764.00
2019-03-06T15:46:02.816Z,2068.00
2019-03-06T15:47:02.869Z,2100.00
2019-03-06T15:48:55.868Z,1964.00
2019-03-06T15:49:55.923Z,1940.00
2019-03-06T15:51:48.920Z,1812.00
2019-03-06T15:52:48.985Z,1708.00
2019-03-06T15:54:41.972Z,1536.00
2019-03-06T15:55:42.022Z,1476.00
2019-03-06T15:57:35.001Z,1364.00
2019-03-06T15:58:35.066Z,1332.00
2019-03-06T16:00:28.064Z,1260.00
2019-03-06T16:01:28.111Z,1224.00
2019-03-06T16:03:21.103Z,1316.00
2019-03-06T16:04:21.167Z,1392.00
2019-03-06T16:06:20.332Z,1288.00
2019-03-06T16:07:14.192Z,1276.00
2019-03-06T16:09:07.188Z,1308.00
2019-03-06T16:10:07.238Z,1288.00
2019-03-06T16:12:00.221Z,1228.00
2019-03-06T16:13:00.280Z,1180.00
2019-03-06T16:14:53.268Z,1140.00
2019-03-06T16:15:53.323Z,1164.00
2019-03-06T16:17:46.307Z,1128.00
2019-03-06T16:18:46.367Z,1084.00
2019-03-06T16:20:39.359Z,1056.00
2019-03-06T16:21:39.412Z,1048.00
2019-03-06T16:23:32.383Z,1032.00
2019-03-06T16:24:32.443Z,992.00
2019-03-06T16:26:25.446Z,832.00
2019-03-06T16:27:25.481Z,784.00
2019-03-06T16:29:18.473Z,848.00
2019-03-06T16:30:18.548Z,848.00
2019-03-06T16:32:11.533Z,880.00
2019-03-06T16:33:11.588Z,824.00
2019-03-06T16:35:04.589Z,732.00
2019-03-06T16:36:04.635Z,744.00
2019-03-06T16:37:57.736Z,708.00
2019-03-06T16:38:57.698Z,668.00
2019-03-06T16:40:50.708Z,596.00
2019-03-06T16:41:50.743Z,604.00
2019-03-06T16:43:43.717Z,576.00
2019-03-06T16:44:43.791Z,520.00
2019-03-06T16:46:36.769Z,512.00
2019-03-06T16:47:36.820Z,524.00
2019-03-06T16:49:29.810Z,464.00
2019-03-06T16:50:29.859Z,408.00
2019-03-06T16:52:22.843Z,344.00
2019-03-06T16:53:22.899Z,332.00
2019-03-06T16:55:15.885Z,304.00
2019-03-06T16:56:15.941Z,276.00
2019-03-06T16:58:08.926Z,212.00
2019-03-06T16:59:08.983Z,204.00
2019-03-06T17:01:01.977Z,172.00
2019-03-06T17:02:02.031Z,176.00
2019-03-06T17:03:55.009Z,128.00
2019-03-06T17:04:55.070Z,132.00
2019-03-06T17:06:48.072Z,144.00
2019-03-06T17:07:48.117Z,140.00
2019-03-06T17:09:41.101Z,124.00
2019-03-06T17:10:41.155Z,112.00
2019-03-06T17:12:34.136Z,80.00
2019-03-06T17:13:34.194Z,80.00
2019-03-06T17:15:27.184Z,64.00
2019-03-06T17:16:27.232Z,60.00
2019-03-06T17:18:20.211Z,40.00
2019-03-06T17:19:20.269Z,32.00
2019-03-06T17:21:13.257Z,20.00
2019-03-06T17:22:13.305Z,24.00
2019-03-06T17:24:06.296Z,20.00
2019-03-06T17:25:06.357Z,20.00
2019-03-06T17:26:59.346Z,16.00
2019-03-06T17:27:59.393Z,16.00
2019-03-06T17:29:52.382Z,12.00
2019-03-06T17:30:52.432Z,8.00
2019-03-06T17:32:45.432Z,8.00
2019-03-06T17:33:45.489Z,4.00
2019-03-06T17:35:38.476Z,4.00
2019-03-06T17:36:38.525Z,4.00
2019-03-06T17:38:31.506Z,4.00
2019-03-06T17:39:31.563Z,4.00
2019-03-06T17:41:24.557Z,0.00
2019-03-06T17:42:24.604Z,0.00
2019-03-06T17:44:17.590Z,0.00
2019-03-06T17:45:17.650Z,0.00
2019-03-06T17:47:11.165Z,0.00
2019-03-06T17:48:11.224Z,0.00
2019-03-06T17:50:04.206Z,0.00
2019-03-06T17:51:04.254Z,0.00
2019-03-06T17:52:57.255Z,0.00
2019-03-06T17:53:57.311Z,0.00
2019-03-06T17:55:50.314Z,0.00
2019-03-06T17:56:50.358Z,0.00
2019-03-06T17:58:43.340Z,0.00
2019-03-06T17:59:43.411Z,0.00
2019-03-06T18:01:36.383Z,0.00
2019-03-06T18:02:36.433Z,0.00
2019-03-06T18:04:29.416Z,0.00